Time;durP1;ratioP1;P1;durP2;ratioP2;P2;SDS_P1;SDS_P2;PMS_P1;PMS_P2;Temp;Humidity;BMP_temperature;BMP_pressure;BME280_temperature;BME280_humidity;BME280_pressure;Samples;Min_cycle;Max_cycle;Signal;HPM_P1;HPM_P2
2022/10/13 00:00:41;;;;;;;19.52;10.10;;;;;;;10.40;72.96;102264.67;1809440;76;22209;-87
2022/10/13 00:03:09;;;;;;;13.72;9.70;;;;;;;10.39;73.10;102265.09;1808996;76;21035;-86
2022/10/13 00:05:43;;;;;;;19.40;10.13;;;;;;;10.42;73.07;102267.89;1825952;77;21282;-87
2022/10/13 00:08:11;;;;;;;18.00;10.13;;;;;;;10.42;73.11;102266.57;1813184;76;21018;-87
2022/10/13 00:10:39;;;;;;;20.62;10.75;;;;;;;10.43;73.12;102263.09;1808858;76;21050;-87
2022/10/13 00:13:05;;;;;;;15.95;10.25;;;;;;;10.43;73.22;102259.14;1809061;76;21737;-88
2022/10/13 00:15:33;;;;;;;17.00;9.98;;;;;;;10.46;73.17;102257.10;1808751;77;21517;-83
2022/10/13 00:17:59;;;;;;;16.05;10.35;;;;;;;10.47;73.22;102253.23;1775968;77;21768;-83
2022/10/13 00:20:26;;;;;;;17.40;10.32;;;;;;;10.49;73.22;102262.50;1819073;76;21505;-83
2022/10/13 00:22:53;;;;;;;15.45;10.00;;;;;;;10.50;73.21;102266.95;1798512;78;21049;-82
2022/10/13 00:25:20;;;;;;;16.35;9.90;;;;;;;10.50;73.19;102261.69;1808485;76;22506;-83
2022/10/13 00:27:47;;;;;;;17.85;9.80;;;;;;;10.49;73.21;102255.91;1809013;77;21049;-83
2022/10/13 00:30:14;;;;;;;19.37;10.35;;;;;;;10.48;73.25;102257.66;1809775;77;21236;-83
2022/10/13 00:32:41;;;;;;;15.95;9.60;;;;;;;10.49;73.38;102256.84;1812259;77;21022;-83
2022/10/13 00:35:08;;;;;;;18.42;9.68;;;;;;;10.53;73.38;102258.29;1810863;76;21054;-84
2022/10/13 00:37:36;;;;;;;14.78;10.03;;;;;;;10.55;73.43;102262.83;1806036;79;21777;-84
2022/10/13 00:40:04;;;;;;;19.98;9.78;;;;;;;10.55;73.35;102264.14;1831407;76;21000;-83
2022/10/13 00:42:31;;;;;;;20.12;11.43;;;;;;;10.56;73.39;102265.03;1832246;77;21018;-83
2022/10/13 00:45:18;;;;;;;17.60;11.22;;;;;;;10.53;73.34;102256.59;1809120;77;21246;-83
2022/10/13 00:47:49;;;;;;;17.70;11.45;;;;;;;10.53;73.38;102257.90;1830862;76;21006;-84
2022/10/13 00:50:21;;;;;;;19.87;11.80;;;;;;;10.53;73.43;102264.87;1801099;77;21722;-83
2022/10/13 00:52:47;;;;;;;18.67;10.75;;;;;;;10.53;73.49;102253.95;1802076;78;21605;-83
2022/10/13 00:55:16;;;;;;;17.42;9.95;;;;;;;10.53;73.47;102253.02;1839021;77;21050;-84
2022/10/13 00:57:43;;;;;;;18.48;9.40;;;;;;;10.53;73.51;102252.63;1822744;76;21601;-84
2022/10/13 01:00:14;;;;;;;13.53;9.28;;;;;;;10.55;73.56;102247.41;1781042;77;21673;-88
2022/10/13 01:02:41;;;;;;;15.98;10.13;;;;;;;10.55;73.52;102249.66;1806302;76;21743;-86
2022/10/13 01:05:09;;;;;;;19.48;10.80;;;;;;;10.55;73.61;102260.19;1798203;78;21310;-87
2022/10/13 01:07:35;;;;;;;18.85;11.20;;;;;;;10.54;73.53;102245.62;1798349;77;21037;-87
2022/10/13 01:10:02;;;;;;;21.27;11.88;;;;;;;10.52;73.61;102246.86;1798202;77;21056;-86
2022/10/13 01:12:43;;;;;;;20.32;11.73;;;;;;;10.49;73.67;102246.31;1815894;77;21042;-86
2022/10/13 01:15:18;;;;;;;19.32;10.72;;;;;;;10.50;73.76;102244.15;1800443;77;22532;-86
2022/10/13 01:18:22;;;;;;;17.52;10.88;;;;;;;10.49;73.77;102242.75;1798328;78;21049;-86
2022/10/13 01:21:09;;;;;;;24.45;11.18;;;;;;;10.48;73.75;102238.33;1798351;77;21020;-85
2022/10/13 01:24:35;;;;;;;20.62;10.45;;;;;;;10.48;73.82;102244.48;1746837;77;21051;-85
2022/10/13 01:27:16;;;;;;;18.98;11.43;;;;;;;10.48;73.89;102238.33;1801107;76;21099;-85
2022/10/13 01:30:19;;;;;;;17.73;11.10;;;;;;;10.48;73.96;102235.70;1798395;77;21759;-85
2022/10/13 01:33:17;;;;;;;22.90;12.40;;;;;;;10.48;74.04;102237.91;1798228;77;21028;-85
2022/10/13 01:35:58;;;;;;;19.27;11.68;;;;;;;10.51;74.06;102241.13;1798324;77;21039;-86
2022/10/13 01:38:51;;;;;;;25.17;11.93;;;;;;;10.51;74.07;102233.23;1797106;77;21045;-85
2022/10/13 01:41:36;;;;;;;22.00;12.43;;;;;;;10.48;74.10;102227.38;1814743;78;21075;-85
2022/10/13 01:44:31;;;;;;;23.20;11.95;;;;;;;10.49;74.09;102233.15;1798338;77;21750;-85
2022/10/13 01:46:58;;;;;;;20.92;12.47;;;;;;;10.49;74.12;102233.53;1821241;77;21028;-86
2022/10/13 01:49:28;;;;;;;26.02;12.53;;;;;;;10.47;74.11;102230.86;1798228;78;21076;-85
2022/10/13 01:51:58;;;;;;;20.65;12.33;;;;;;;10.46;74.18;102225.09;1769504;79;21653;-85
2022/10/13 01:54:25;;;;;;;20.43;12.85;;;;;;;10.45;74.22;102226.32;1799155;79;21288;-84
2022/10/13 01:56:54;;;;;;;20.48;12.50;;;;;;;10.45;74.28;102218.00;1803830;78;21700;-85
2022/10/13 01:59:21;;;;;;;18.17;11.38;;;;;;;10.48;74.36;102223.85;1803860;78;21014;-85
2022/10/13 02:02:15;;;;;;;20.08;11.93;;;;;;;10.47;74.24;102221.64;1804078;78;21038;-81
2022/10/13 02:05:12;;;;;;;23.83;12.55;;;;;;;10.46;74.27;102217.61;1761184;81;21473;-81
2022/10/13 02:07:55;;;;;;;20.55;12.18;;;;;;;10.45;74.34;102211.42;1803925;78;21209;-81
2022/10/13 02:10:45;;;;;;;26.12;14.53;;;;;;;10.42;74.29;102202.50;1804058;78;22535;-81
2022/10/13 02:13:13;;;;;;;24.90;14.23;;;;;;;10.42;74.44;102205.13;1803976;78;21027;-81
2022/10/13 02:15:46;;;;;;;27.87;14.78;;;;;;;10.41;74.40;102198.94;1803865;78;21050;-81
2022/10/13 02:18:17;;;;;;;27.95;15.20;;;;;;;10.40;74.45;102193.21;1797641;78;22645;-82
2022/10/13 02:20:44;;;;;;;24.23;13.98;;;;;;;10.40;74.41;102201.10;1804021;78;21093;-82
2022/10/13 02:23:14;;;;;;;28.90;15.10;;;;;;;10.40;74.48;102202.42;1804008;78;22472;-82
2022/10/13 02:25:42;;;;;;;29.65;14.87;;;;;;;10.39;74.50;102204.55;1804003;78;21324;-82
2022/10/13 02:28:09;;;;;;;24.98;14.50;;;;;;;10.40;74.53;102198.47;1763231;81;21061;-81
2022/10/13 02:30:38;;;;;;;23.80;14.30;;;;;;;10.39;74.50;102199.70;1762722;79;21070;-81
2022/10/13 02:33:04;;;;;;;28.27;15.72;;;;;;;10.40;74.50;102197.55;1793445;78;21647;-81
2022/10/13 02:35:32;;;;;;;25.88;14.98;;;;;;;10.34;74.43;102189.36;1806390;78;21852;-82
2022/10/13 02:37:59;;;;;;;28.95;15.25;;;;;;;10.31;74.58;102192.33;1803280;78;21030;-81
2022/10/13 02:40:26;;;;;;;25.90;15.43;;;;;;;10.32;74.60;102190.59;1740932;81;22173;-81
2022/10/13 02:42:53;;;;;;;26.15;15.63;;;;;;;10.33;74.61;102190.20;1804180;78;21875;-81
2022/10/13 02:45:20;;;;;;;22.02;14.63;;;;;;;10.24;74.67;102169.13;1803483;78;21070;-81
2022/10/13 02:47:47;;;;;;;28.12;14.87;;;;;;;10.30;74.64;102189.23;1803813;78;21713;-81
2022/10/13 02:50:14;;;;;;;22.90;13.95;;;;;;;10.32;74.75;102180.06;1803228;77;21222;-81
2022/10/13 02:52:41;;;;;;;30.82;13.85;;;;;;;10.34;74.72;102184.09;1821291;78;21027;-81
2022/10/13 02:55:08;;;;;;;26.62;14.33;;;;;;;10.32;74.77;102189.28;1798342;77;21038;-82
2022/10/13 02:57:35;;;;;;;24.32;14.13;;;;;;;10.34;74.77;102185.41;1821580;76;21093;-82
2022/10/13 03:00:04;;;;;;;25.15;14.05;;;;;;;10.35;74.73;102175.39;1821165;77;21015;-82
2022/10/13 03:02:31;;;;;;;21.73;14.07;;;;;;;10.34;74.75;102172.25;1805541;76;21074;-86
2022/10/13 03:04:58;;;;;;;23.42;13.90;;;;;;;10.35;74.73;102172.75;1760267;78;21500;-85
2022/10/13 03:07:24;;;;;;;21.97;13.43;;;;;;;10.34;74.75;102177.52;1739066;79;21066;-85
2022/10/13 03:09:51;;;;;;;22.48;13.45;;;;;;;10.36;74.82;102179.80;1738893;81;21054;-86
2022/10/13 03:12:18;;;;;;;22.07;14.38;;;;;;;10.38;74.81;102176.44;1738462;79;21792;-86
2022/10/13 03:14:45;;;;;;;30.65;14.18;;;;;;;10.39;74.79;102176.91;1760396;79;21054;-86
2022/10/13 03:17:12;;;;;;;21.77;13.58;;;;;;;10.40;74.76;102173.47;1738589;81;21062;-80
2022/10/13 03:19:39;;;;;;;26.45;14.20;;;;;;;10.41;74.79;102174.36;1759543;79;21161;-81
2022/10/13 03:22:07;;;;;;;26.42;14.30;;;;;;;10.44;74.85;102172.78;1766232;79;21556;-82
2022/10/13 03:24:34;;;;;;;22.85;13.35;;;;;;;10.45;74.74;102180.25;1750671;81;22466;-82
2022/10/13 03:27:01;;;;;;;22.52;13.10;;;;;;;10.42;74.74;102170.49;1759824;81;21046;-82
2022/10/13 03:29:28;;;;;;;30.62;14.03;;;;;;;10.43;74.78;102174.91;1738492;79;21057;-81
2022/10/13 03:31:55;;;;;;;26.70;14.00;;;;;;;10.41;74.75;102171.73;1737097;79;21042;-82
2022/10/13 03:34:22;;;;;;;24.23;13.60;;;;;;;10.41;74.75;102176.56;1738631;81;21089;-81
2022/10/13 03:36:49;;;;;;;19.50;12.90;;;;;;;10.40;74.75;102176.09;1738560;81;21740;-81
2022/10/13 03:39:15;;;;;;;21.37;12.78;;;;;;;10.42;74.88;102169.59;1749155;81;21031;-81
2022/10/13 03:41:42;;;;;;;20.23;13.72;;;;;;;10.42;74.80;102173.13;1748980;80;21041;-83
2022/10/13 03:44:13;;;;;;;22.10;12.73;;;;;;;10.42;74.78;102170.49;1737627;80;21105;-82
2022/10/13 03:46:40;;;;;;;18.48;11.70;;;;;;;10.36;74.76;102154.80;1742759;80;21099;-81
2022/10/13 03:49:10;;;;;;;18.57;11.05;;;;;;;10.42;74.78;102157.33;1766689;79;22424;-83
2022/10/13 03:51:37;;;;;;;20.25;11.57;;;;;;;10.43;74.78;102160.85;1755839;79;21065;-84
2022/10/13 03:54:05;;;;;;;16.42;10.72;;;;;;;10.44;74.86;102158.30;1749155;80;21030;-82
2022/10/13 03:56:31;;;;;;;18.35;11.80;;;;;;;10.47;74.75;102156.22;1748280;81;21220;-84
2022/10/13 03:58:59;;;;;;;19.52;11.70;;;;;;;10.48;74.77;102158.93;1741163;82;21071;-83
2022/10/13 04:01:27;;;;;;;15.53;9.53;;;;;;;10.50;74.70;102162.95;1746474;81;21704;-84
2022/10/13 04:03:55;;;;;;;18.35;11.15;;;;;;;10.49;74.67;102171.28;1767101;81;21006;-83
2022/10/13 04:06:24;;;;;;;18.23;11.15;;;;;;;10.45;74.69;102157.45;1770215;80;21079;-91
2022/10/13 04:08:50;;;;;;;20.90;10.55;;;;;;;10.45;74.78;102153.93;1758852;80;21082;-85
2022/10/13 04:11:17;;;;;;;15.40;10.58;;;;;;;10.45;74.72;102158.77;1741008;79;21639;-82
2022/10/13 04:13:44;;;;;;;19.32;10.85;;;;;;;10.45;74.80;102152.61;1721892;80;22561;-89
2022/10/13 04:16:20;;;;;;;16.52;10.68;;;;;;;10.46;74.73;102157.06;1731860;82;21076;-88
2022/10/13 04:18:54;;;;;;;18.05;10.58;;;;;;;10.45;74.70;102159.20;1763167;81;21042;-88
2022/10/13 04:21:20;;;;;;;;;;;;;;;10.45;74.75;102156.56;1752625;80;21058;-88
2022/10/13 04:23:47;;;;;;;20.10;11.50;;;;;;;10.44;74.70;102155.67;1743277;81;20330;-87
2022/10/13 04:26:16;;;;;;;15.68;10.53;;;;;;;10.43;74.68;102151.64;1743003;81;21753;-84
2022/10/13 04:28:43;;;;;;;20.82;11.93;;;;;;;10.41;74.62;102150.25;1721677;81;22179;-81
2022/10/13 04:31:10;;;;;;;19.92;11.70;;;;;;;10.41;74.70;102149.35;1756783;81;21090;-80
2022/10/13 04:33:37;;;;;;;18.27;11.03;;;;;;;10.41;74.70;102143.66;1748886;81;21230;-90
2022/10/13 04:36:06;;;;;;;19.15;11.33;;;;;;;10.43;74.63;102149.01;1771942;79;21031;-89
2022/10/13 04:38:33;;;;;;;17.52;11.35;;;;;;;10.44;74.66;102149.09;1751906;81;21755;-87
2022/10/13 04:41:03;;;;;;;22.87;12.28;;;;;;;10.42;74.55;102142.85;1740877;82;21037;-84
2022/10/13 04:43:30;;;;;;;20.08;11.10;;;;;;;10.44;74.59;102146.88;1762616;80;21066;-84
2022/10/13 04:46:03;;;;;;;18.65;11.70;;;;;;;10.42;74.53;102135.37;1737598;81;21078;-88
2022/10/13 04:48:30;;;;;;;25.43;12.65;;;;;;;10.41;74.47;102134.87;1779102;79;21008;-91
2022/10/13 04:51:05;;;;;;;18.80;11.93;;;;;;;10.38;74.40;102134.33;1760271;76;21730;-85
2022/10/13 04:53:32;;;;;;;18.25;12.03;;;;;;;10.35;74.38;102138.11;1813133;77;21030;-85
2022/10/13 04:56:04;;;;;;;19.90;12.68;;;;;;;10.33;74.37;102135.83;1812524;78;21066;-84
2022/10/13 04:58:32;;;;;;;21.68;13.15;;;;;;;10.33;74.33;102134.52;1810453;78;21083;-86
2022/10/13 05:01:07;;;;;;;21.68;12.18;;;;;;;10.28;74.29;102131.61;1806880;76;21050;-85
2022/10/13 05:03:34;;;;;;;20.88;12.82;;;;;;;10.24;74.22;102131.40;1803700;77;23103;-87
2022/10/13 05:06:01;;;;;;;23.07;12.50;;;;;;;10.21;74.26;102134.80;1828448;78;22184;-86
2022/10/13 05:08:28;;;;;;;20.45;11.88;;;;;;;10.20;74.23;102142.19;1814247;76;21508;-85
2022/10/13 05:11:00;;;;;;;24.82;12.70;;;;;;;10.18;74.37;102137.27;1820798;76;21085;-89
2022/10/13 05:13:27;;;;;;;25.62;13.62;;;;;;;10.18;74.31;102135.95;1808051;78;21097;-88
2022/10/13 05:15:56;;;;;;;24.45;13.43;;;;;;;10.16;74.33;102145.50;1831346;78;21773;-89
2022/10/13 05:18:23;;;;;;;22.20;13.45;;;;;;;10.13;74.32;102136.13;1833001;78;21568;-88
2022/10/13 05:20:50;;;;;;;22.15;14.10;;;;;;;10.10;74.23;102144.78;1832195;78;21533;-89
2022/10/13 05:23:18;;;;;;;21.05;13.53;;;;;;;10.04;74.35;102141.86;1788465;78;21003;-88
2022/10/13 05:25:45;;;;;;;23.87;14.03;;;;;;;9.97;74.20;102140.17;1832882;78;21057;-88
2022/10/13 05:28:13;;;;;;;19.48;14.03;;;;;;;9.89;74.24;102138.05;1816054;78;21725;-89
2022/10/13 05:30:39;;;;;;;25.72;14.33;;;;;;;9.83;74.25;102137.72;1825123;78;21049;-89
2022/10/13 05:33:06;;;;;;;23.95;14.75;;;;;;;9.78;74.27;102133.98;1819544;76;21034;-89
2022/10/13 05:35:33;;;;;;;21.37;13.65;;;;;;;9.69;74.25;102132.20;1805573;78;21126;-88
2022/10/13 05:38:00;;;;;;;27.45;15.45;;;;;;;9.62;74.37;102132.70;1822800;78;20999;-89
2022/10/13 05:40:28;;;;;;;22.07;14.50;;;;;;;9.57;74.47;102132.45;1809310;78;21311;-88
2022/10/13 05:42:55;;;;;;;29.70;15.70;;;;;;;9.54;74.65;102127.06;1803532;76;21034;-88
2022/10/13 05:45:22;;;;;;;25.02;14.60;;;;;;;9.57;74.75;102135.50;1825008;77;21019;-91
2022/10/13 05:47:48;;;;;;;25.08;14.80;;;;;;;9.59;74.90;102133.86;1813855;78;21070;-88
2022/10/13 05:50:16;;;;;;;25.82;15.13;;;;;;;9.61;75.00;102132.20;1834169;77;21053;-88
2022/10/13 05:52:44;;;;;;;23.83;14.45;;;;;;;9.65;75.11;102130.25;1829520;76;21721;-89
2022/10/13 05:55:14;;;;;;;24.50;15.23;;;;;;;9.71;75.25;102124.87;1814150;77;21042;-88
2022/10/13 05:57:43;;;;;;;31.75;15.93;;;;;;;9.77;75.27;102119.02;1811804;77;21027;-88
2022/10/13 06:00:21;;;;;;;31.97;16.65;;;;;;;9.82;75.25;102118.84;1814616;78;21529;-88
2022/10/13 06:02:59;;;;;;;32.75;17.55;;;;;;;9.87;75.22;102119.05;1809894;77;21063;-88
2022/10/13 06:05:26;;;;;;;33.73;19.70;;;;;;;9.92;75.24;102118.88;1838231;77;21269;-88
2022/10/13 06:07:52;;;;;;;36.03;21.90;;;;;;;9.91;75.05;102112.73;1788923;77;21071;-88
2022/10/13 06:10:20;;;;;;;39.20;22.58;;;;;;;9.87;75.01;102118.67;1823290;76;21133;-89
2022/10/13 06:12:47;;;;;;;41.20;21.17;;;;;;;9.85;75.00;102120.71;1828256;78;21277;-88
2022/10/13 06:15:13;;;;;;;36.68;22.58;;;;;;;9.79;74.93;102116.47;1808753;77;21022;-88
2022/10/13 06:17:40;;;;;;;40.08;21.42;;;;;;;9.75;74.97;102112.78;1809121;77;22479;-88
2022/10/13 06:20:10;;;;;;;34.58;20.30;;;;;;;9.70;74.98;102115.58;1838055;77;21039;-88
2022/10/13 06:22:37;;;;;;;33.45;20.27;;;;;;;9.67;75.09;102119.39;1825828;77;21281;-88
2022/10/13 06:25:05;;;;;;;28.02;17.20;;;;;;;9.64;75.10;102119.23;1809200;76;21020;-88
2022/10/13 06:27:32;;;;;;;29.77;18.05;;;;;;;9.65;75.25;102125.88;1795361;78;21052;-88
2022/10/13 06:29:59;;;;;;;27.58;17.42;;;;;;;9.67;75.43;102120.70;1813861;77;21734;-89
2022/10/13 06:32:26;;;;;;;28.62;16.27;;;;;;;9.70;75.39;102125.71;1831062;77;21066;-89
2022/10/13 06:34:53;;;;;;;28.30;15.38;;;;;;;9.72;75.45;102127.08;1786777;79;21062;-89
2022/10/13 06:37:20;;;;;;;23.73;14.20;;;;;;;9.75;75.41;102121.09;1841096;77;21132;-88
2022/10/13 06:39:53;;;;;;;29.52;14.93;;;;;;;9.70;75.40;102111.25;1842431;77;21504;-89
2022/10/13 06:42:20;;;;;;;25.43;15.05;;;;;;;9.78;75.46;102117.28;1812034;77;22528;-89
2022/10/13 06:44:47;;;;;;;28.00;14.00;;;;;;;9.83;75.49;102113.16;1826525;77;21015;-88
2022/10/13 06:47:13;;;;;;;28.87;14.85;;;;;;;9.88;75.52;102106.41;1821881;77;21601;-89
2022/10/13 06:49:41;;;;;;;33.35;14.95;;;;;;;9.95;75.51;102108.91;1821961;78;21525;-88
2022/10/13 06:52:12;;;;;;;30.32;15.85;;;;;;;10.02;75.53;102105.77;1830266;76;21023;-88
2022/10/13 06:54:39;;;;;;;28.10;15.18;;;;;;;10.06;75.49;102097.19;1833414;77;21781;-88
2022/10/13 06:57:06;;;;;;;25.52;14.25;;;;;;;10.14;75.34;102093.64;1833906;78;21039;-88
2022/10/13 06:59:33;;;;;;;25.85;13.10;;;;;;;10.19;75.19;102092.11;1827988;78;21065;-88
2022/10/13 07:02:00;;;;;;;24.27;13.38;;;;;;;10.25;75.12;102088.48;1833806;76;21026;-88
2022/10/13 07:04:27;;;;;;;26.97;13.48;;;;;;;10.30;74.98;102090.89;1795904;78;21057;-88
2022/10/13 07:06:54;;;;;;;27.13;13.53;;;;;;;10.34;74.88;102088.03;1810174;77;21822;-88
2022/10/13 07:09:21;;;;;;;28.65;14.00;;;;;;;10.38;74.64;102087.34;1822597;78;21135;-88
2022/10/13 07:11:49;;;;;;;31.27;14.30;;;;;;;10.39;74.60;102091.36;1811226;78;21176;-88
2022/10/13 07:14:16;;;;;;;27.95;12.50;;;;;;;10.44;74.51;102095.13;1834078;78;20988;-89
2022/10/13 07:16:43;;;;;;;23.75;13.93;;;;;;;10.46;74.25;102085.98;1834319;77;20998;-89
2022/10/13 07:19:10;;;;;;;26.97;12.88;;;;;;;10.49;74.33;102083.09;1818530;77;21708;-89
2022/10/13 07:21:37;;;;;;;26.37;14.30;;;;;;;10.55;74.35;102074.57;1744188;81;21050;-88
2022/10/13 07:24:04;;;;;;;26.93;13.45;;;;;;;10.63;74.31;102069.23;1834389;78;21022;-88
2022/10/13 07:26:32;;;;;;;28.52;14.00;;;;;;;10.69;74.18;102072.14;1811256;78;21023;-89
2022/10/13 07:28:59;;;;;;;26.02;13.50;;;;;;;10.73;74.06;102074.50;1790580;78;21098;-89
2022/10/13 07:31:34;;;;;;;28.12;14.83;;;;;;;10.78;74.06;102065.08;1822888;78;21832;-89
2022/10/13 07:34:03;;;;;;;26.33;14.25;;;;;;;10.85;73.86;102066.27;1803865;79;21068;-88
2022/10/13 07:36:31;;;;;;;25.95;12.85;;;;;;;10.91;73.77;102058.63;1824993;78;21026;-88
2022/10/13 07:38:59;;;;;;;24.72;12.75;;;;;;;10.96;73.65;102051.84;1827078;78;21002;-88
2022/10/13 07:41:26;;;;;;;31.62;14.18;;;;;;;11.02;73.58;102059.12;1815701;78;21478;-88
2022/10/13 07:43:56;;;;;;;24.02;12.78;;;;;;;11.07;73.47;102047.95;1826045;78;21366;-88
2022/10/13 07:46:30;;;;;;;27.15;13.05;;;;;;;11.13;73.32;102048.63;1814250;78;21046;-88
2022/10/13 07:49:01;;;;;;;26.15;12.63;;;;;;;11.19;73.17;102048.89;1824673;78;21094;-89
2022/10/13 07:51:30;;;;;;;29.20;13.35;;;;;;;11.24;73.06;102047.75;1817210;77;21043;-88
2022/10/13 07:53:57;;;;;;;27.85;13.65;;;;;;;11.31;72.96;102044.98;1816293;76;20995;-87
2022/10/13 07:56:24;;;;;;;29.23;13.68;;;;;;;11.37;72.86;102046.13;1809178;79;22654;-88
2022/10/13 07:58:59;;;;;;;29.60;13.83;;;;;;;11.43;72.67;102038.50;1833390;77;21051;-89
2022/10/13 08:01:25;;;;;;;25.23;13.28;;;;;;;11.50;72.52;102034.36;1815543;77;20996;-88
2022/10/13 08:03:55;;;;;;;23.25;12.33;;;;;;;11.56;72.35;102032.00;1833753;77;21012;-88
2022/10/13 08:06:23;;;;;;;26.15;12.43;;;;;;;11.61;72.19;102027.80;1819801;77;21025;-89
2022/10/13 08:08:50;;;;;;;24.57;12.58;;;;;;;11.65;72.04;102027.50;1828960;77;22504;-88
2022/10/13 08:11:17;;;;;;;28.20;12.68;;;;;;;11.69;72.11;102022.83;1810836;77;21039;-89
2022/10/13 08:13:49;;;;;;;23.50;12.25;;;;;;;11.75;71.95;102020.86;1818079;77;20980;-88
2022/10/13 08:16:21;;;;;;;24.30;11.73;;;;;;;11.82;71.98;102021.59;1819835;77;21062;-89
2022/10/13 08:18:55;;;;;;;26.62;11.28;;;;;;;11.87;71.70;102024.90;1800995;79;21049;-88
2022/10/13 08:21:22;;;;;;;26.15;12.00;;;;;;;11.94;71.59;102015.97;1832733;76;21922;-88
2022/10/13 08:23:51;;;;;;;22.95;11.03;;;;;;;12.02;71.38;102008.81;1809310;78;21022;-88
2022/10/13 08:26:23;;;;;;;20.92;10.95;;;;;;;12.09;71.18;102009.04;1830325;76;21086;-89
2022/10/13 08:28:50;;;;;;;20.57;10.60;;;;;;;12.15;71.12;102012.83;1830416;77;21535;-88
2022/10/13 08:31:19;;;;;;;25.35;13.53;;;;;;;12.20;70.73;102012.59;1828615;77;21004;-88
2022/10/13 08:33:46;;;;;;;27.05;12.53;;;;;;;12.25;70.58;102008.38;1874091;76;21760;-89
2022/10/13 08:36:14;;;;;;;22.95;12.15;;;;;;;12.30;70.46;102006.36;1856971;76;21255;-90
2022/10/13 08:38:42;;;;;;;20.30;10.68;;;;;;;12.37;70.57;102005.72;1840908;76;21490;-89
2022/10/13 08:41:18;;;;;;;20.43;10.35;;;;;;;12.44;70.49;101993.23;1843084;77;21462;-89
2022/10/13 08:43:57;;;;;;;21.30;9.60;;;;;;;12.50;70.23;102000.08;1842550;76;21008;-89
2022/10/13 08:46:56;;;;;;;21.27;9.25;;;;;;;12.55;69.90;101995.84;1842547;76;21755;-90
2022/10/13 08:49:23;;;;;;;17.52;8.80;;;;;;;12.60;69.77;101994.28;1831507;77;21054;-90
2022/10/13 08:51:50;;;;;;;19.50;9.53;;;;;;;12.66;69.72;101989.64;1829589;76;20944;-89
2022/10/13 08:54:17;;;;;;;22.55;8.90;;;;;;;12.71;69.41;101997.32;1801231;78;21632;-89
2022/10/13 08:56:48;;;;;;;20.50;8.88;;;;;;;12.74;69.15;102000.05;1778703;79;21033;-89
2022/10/13 08:59:16;;;;;;;17.07;8.78;;;;;;;12.78;68.94;102001.98;1796998;78;21758;-89
2022/10/13 09:01:47;;;;;;;16.40;9.43;;;;;;;12.83;68.88;101996.85;1774197;78;21053;-89
2022/10/13 09:04:38;;;;;;;20.35;9.58;;;;;;;12.86;68.60;101991.69;1793373;78;21543;-89
2022/10/13 09:07:17;;;;;;;17.95;8.73;;;;;;;12.92;68.60;101994.97;1775931;79;21056;-88
2022/10/13 09:09:44;;;;;;;16.87;8.00;;;;;;;13.01;68.65;102000.58;1805735;78;21087;-89
2022/10/13 09:12:14;;;;;;;14.68;7.67;;;;;;;13.06;68.49;101996.33;1752193;79;21813;-89
2022/10/13 09:15:02;;;;;;;15.35;7.92;;;;;;;13.13;68.28;102000.99;1774200;79;20986;-88
2022/10/13 09:17:29;;;;;;;17.30;8.30;;;;;;;13.18;68.03;101998.09;1771431;79;21038;-88
2022/10/13 09:20:06;;;;;;;15.20;7.65;;;;;;;13.23;67.80;101998.23;1826898;78;21034;-88
2022/10/13 09:22:36;;;;;;;18.55;8.10;;;;;;;13.27;67.59;101991.30;1789073;79;21512;-91
2022/10/13 09:25:19;;;;;;;17.77;7.35;;;;;;;13.29;67.47;101986.56;1801243;78;22584;-91
2022/10/13 09:28:00;;;;;;;17.17;7.72;;;;;;;13.33;67.34;101990.25;1790056;79;29611;-90
2022/10/13 09:30:40;;;;;;;17.15;7.15;;;;;;;13.37;67.09;101989.06;1775561;79;21018;-90
2022/10/13 09:33:22;;;;;;;16.17;7.83;;;;;;;13.39;67.03;101987.37;1772117;79;21041;-90
2022/10/13 09:36:09;;;;;;;15.40;7.05;;;;;;;13.43;66.83;101981.76;1772849;79;21117;-90
2022/10/13 09:38:35;;;;;;;14.75;7.28;;;;;;;13.45;66.85;101982.70;1772926;79;21140;-91
2022/10/13 09:41:10;;;;;;;19.57;7.72;;;;;;;13.51;66.93;101980.68;1772790;79;21053;-91
2022/10/13 09:43:47;;;;;;;15.65;7.10;;;;;;;13.55;66.81;101979.53;1797372;78;21058;-91
2022/10/13 09:46:31;;;;;;;18.40;7.50;;;;;;;13.60;66.65;101974.37;1784753;79;21093;-91
2022/10/13 09:49:03;;;;;;;20.00;8.08;;;;;;;13.65;66.42;101970.56;1774280;79;21124;-89
2022/10/13 09:51:41;;;;;;;14.95;6.67;;;;;;;13.69;66.43;101964.52;1772876;78;21740;-88
2022/10/13 09:54:08;;;;;;;13.70;6.92;;;;;;;13.73;66.35;101950.53;1826487;76;21040;-88
2022/10/13 09:56:43;;;;;;;13.28;6.78;;;;;;;13.76;65.95;101951.52;1765613;79;21063;-89
2022/10/13 09:59:15;;;;;;;13.43;6.47;;;;;;;13.82;65.90;101951.25;1819067;76;21038;-90
2022/10/13 10:01:45;;;;;;;12.78;5.85;;;;;;;13.87;65.53;101958.48;1808050;76;21070;-90
2022/10/13 10:04:20;;;;;;;16.75;10.00;;;;;;;13.91;65.39;101947.13;1828487;76;21752;-89
2022/10/13 10:06:46;;;;;;;11.95;5.83;;;;;;;13.97;65.28;101949.06;1808300;77;21034;-89
2022/10/13 10:09:33;;;;;;;12.73;5.40;;;;;;;14.02;65.06;101939.52;1827447;77;21031;-88
2022/10/13 10:12:02;;;;;;;14.58;6.08;;;;;;;14.05;64.63;101937.38;1814313;78;21160;-89
2022/10/13 10:14:35;;;;;;;14.25;6.30;;;;;;;14.09;64.57;101940.15;1835409;77;21536;-89
2022/10/13 10:17:10;;;;;;;18.48;8.35;;;;;;;14.14;64.45;101931.92;1832271;76;21208;-90
2022/10/13 10:19:56;;;;;;;22.48;13.58;;;;;;;14.18;64.27;101937.77;1831369;77;21079;-90
2022/10/13 10:22:54;;;;;;;23.52;10.15;;;;;;;14.20;64.06;101930.77;1828886;77;21037;-89
2022/10/13 10:25:47;;;;;;;11.85;6.12;;;;;;;14.26;63.99;101930.05;1826256;77;21691;-90
2022/10/13 10:28:51;;;;;;;14.70;6.08;;;;;;;14.29;63.92;101926.61;1841715;77;21027;-90
2022/10/13 10:31:48;;;;;;;15.95;5.35;;;;;;;14.35;63.92;101922.80;1818117;77;21751;-89
2022/10/13 10:34:37;;;;;;;10.82;5.12;;;;;;;14.38;63.65;101912.30;1822336;77;20969;-90
2022/10/13 10:37:45;;;;;;;13.98;5.53;;;;;;;14.43;63.52;101911.98;1837830;76;21034;-90
2022/10/13 10:40:32;;;;;;;12.65;5.00;;;;;;;14.45;63.33;101898.37;1725802;82;21616;-90
2022/10/13 10:43:40;;;;;;;14.50;5.65;;;;;;;14.47;63.06;101892.70;1784545;79;21209;-90
2022/10/13 10:46:21;;;;;;;15.10;5.47;;;;;;;14.52;62.79;101878.23;1815246;77;21753;-89
2022/10/13 10:48:49;;;;;;;12.10;4.40;;;;;;;14.52;62.59;101879.12;1812590;77;21015;-90
2022/10/13 10:51:17;;;;;;;14.13;4.97;;;;;;;14.55;62.57;101874.35;1785456;79;20999;-90
2022/10/13 10:54:11;;;;;;;12.58;5.25;;;;;;;14.57;62.38;101876.20;1856157;76;21402;-89
2022/10/13 10:56:44;;;;;;;;;;;;;;;14.58;62.18;101866.50;1822411;76;21098;-89
2022/10/13 10:59:40;;;;;;;11.60;4.95;;;;;;;14.60;61.83;101858.16;1825245;78;21791;-89
2022/10/13 11:02:19;;;;;;;12.25;5.10;;;;;;;14.62;61.94;101863.09;1833049;76;21640;-89
2022/10/13 11:04:47;;;;;;;9.70;5.08;;;;;;;14.64;61.42;101853.43;1838360;76;21572;-89
2022/10/13 11:07:29;;;;;;;12.33;5.20;;;;;;;14.61;61.31;101857.75;1828814;77;21365;-90
2022/10/13 11:10:16;;;;;;;15.08;4.80;;;;;;;14.62;61.39;101858.20;1816948;76;21110;-89
2022/10/13 11:13:01;;;;;;;12.85;5.50;;;;;;;14.65;61.35;101863.16;1837730;77;21211;-89
2022/10/13 11:15:32;;;;;;;10.82;4.22;;;;;;;14.67;61.32;101855.25;1831647;77;21542;-89
2022/10/13 11:17:59;;;;;;;10.72;4.95;;;;;;;14.69;61.18;101860.16;1793014;78;21046;-89
2022/10/13 11:20:41;;;;;;;17.07;5.85;;;;;;;14.71;61.17;101863.30;1778873;79;22117;-88
2022/10/13 11:23:19;;;;;;;12.25;5.83;;;;;;;14.76;61.09;101862.12;1802144;79;21739;-89
2022/10/13 11:25:46;;;;;;;13.20;5.00;;;;;;;14.77;60.97;101854.62;1790426;79;21721;-89
2022/10/13 11:28:43;;;;;;;13.25;5.12;;;;;;;14.81;60.84;101854.27;1788349;78;21025;-89
2022/10/13 11:31:29;;;;;;;21.20;8.28;;;;;;;14.83;60.65;101852.55;1802454;79;21063;-90
2022/10/13 11:33:59;;;;;;;13.58;5.53;;;;;;;14.84;60.58;101845.97;1772084;79;21196;-89